KLCH/LCH METAR and TAF weather

Enter ICAO airport designator
Station Type Date Time Source
KLCH METAR 2022/11/27 07:53 UTC NOAA

KLCH 270753Z AUTO 23005KT 10SM CLR 12/08 A2988 RMK AO2 SLP126 T01170078 $


Station Type Date Time Source
KLCH Decoded METAR 2022/11/27 07:53 UTC NOAA

LAKE CHARLES REGIONAL AIRPORT , LA, United States (KLCH) 30-12N 093-23W 3M
Nov 27, 2022 - 02:53 AM EST / 2022.11.27 0753 UTC
Wind: from the SW (230 degrees) at 6 MPH (5 KT):0
Visibility: 10 mile(s):0
Sky conditions: clear
Temperature: 53.1 F (11.7 C)
Dew Point: 46.0 F (7.8 C)
Relative Humidity: 76%
Pressure (altimeter): 29.88 in. Hg (1011 hPa)
ob: KLCH 270753Z AUTO 23005KT 10SM CLR 12/08 A2988 RMK AO2 SLP126 T01170078
cycle: 8

Station Type Date Time Source
KLCH TAF 2022/11/27 06:34 UTC NOAA

TAF KLCH 270532Z 2706/2806 24007KT P6SM SKC
FM271500 26010G16KT P6SM SKC
FM272200 24009KT P6SM SKC

Example: see airport list